Terminal Aerodrome Forecast
Issued by NWS

Home | Current Version | Previous Version | Text Only | Print | Product List | Glossary On
Versions: 1 2 3 4 5 6 7 8 9 10 11 12
000
FTUS46 KMTR 211100
TAFSJC
TAF
KSJC 211120Z 2112/2212 VRB03KT P6SM SCT250
     FM212000 31012KT P6SM BKN200
     FM220400 31005KT P6SM BKN120=

USA.gov is the U.S. government's official web portal to all federal, state and local government web resources and services.